Time;durP1;ratioP1;P1;durP2;ratioP2;P2;SDS_P1;SDS_P2;PMS_P1;PMS_P2;Temp;Humidity;BMP_temperature;BMP_pressure;BME280_temperature;BME280_humidity;BME280_pressure;Samples;Min_cycle;Max_cycle;Signal;HPM_P1;HPM_P2
2022/07/24 00:00:04;;;;;;;9.65;8.68;;;;;;;23.36;61.28;99788.25;344473;28;1457;-74
2022/07/24 00:00:17;;;;;;;9.48;8.40;;;;;;;23.37;60.77;99793.44;344654;28;1570;-73
2022/07/24 00:00:29;;;;;;;9.88;8.35;;;;;;;23.35;61.05;99792.72;343716;28;2258;-74
2022/07/24 00:00:41;;;;;;;9.05;8.15;;;;;;;23.33;61.13;99790.19;344663;28;1808;-73
2022/07/24 00:00:53;;;;;;;9.10;8.20;;;;;;;23.30;61.47;99790.47;344312;28;1977;-73
2022/07/24 00:01:05;;;;;;;9.77;8.77;;;;;;;23.29;61.58;99798.53;344890;28;2440;-74
2022/07/24 00:01:17;;;;;;;9.82;8.80;;;;;;;23.27;61.27;99789.88;346153;28;1755;-73
2022/07/24 00:01:29;;;;;;;10.65;8.93;;;;;;;23.22;61.08;99792.91;346026;28;1050;-73
2022/07/24 00:01:42;;;;;;;10.95;8.90;;;;;;;23.20;61.22;99794.84;345197;28;1083;-74
2022/07/24 00:01:54;;;;;;;10.68;9.10;;;;;;;23.22;61.27;99792.03;344490;28;1266;-73
2022/07/24 00:02:06;;;;;;;10.25;9.00;;;;;;;23.24;61.70;99792.75;345098;28;1049;-73
2022/07/24 00:02:18;;;;;;;10.45;8.75;;;;;;;23.26;61.46;99798.78;345793;28;1856;-73
2022/07/24 00:02:35;;;;;;;10.55;8.93;;;;;;;23.25;61.21;99795.28;346839;28;1205;-74
2022/07/24 00:02:47;;;;;;;10.10;8.95;;;;;;;23.26;61.39;99786.38;347466;28;1270;-74
2022/07/24 00:02:59;;;;;;;11.02;8.68;;;;;;;23.28;61.34;99792.41;347520;28;1300;-73
2022/07/24 00:03:11;;;;;;;11.02;8.43;;;;;;;23.29;60.84;99787.94;345948;28;1930;-73
2022/07/24 00:03:24;;;;;;;9.75;8.45;;;;;;;23.31;61.28;99785.97;345116;28;1803;-73
2022/07/24 00:03:40;;;;;;;9.77;8.43;;;;;;;23.31;60.94;99792.13;345417;28;1842;-73
2022/07/24 00:03:52;;;;;;;9.70;8.15;;;;;;;23.33;61.26;99794.66;344837;28;1734;-73
2022/07/24 00:04:06;;;;;;;9.07;8.15;;;;;;;23.34;61.16;99801.63;345716;28;1075;-73
2022/07/24 00:04:18;;;;;;;9.50;8.60;;;;;;;23.36;61.03;99799.69;345879;28;1917;-74
2022/07/24 00:04:30;;;;;;;9.68;8.68;;;;;;;23.36;60.75;99793.53;345219;28;1320;-73
2022/07/24 00:04:47;;;;;;;9.90;8.80;;;;;;;23.36;61.00;99789.06;346718;28;1641;-73
2022/07/24 00:05:01;;;;;;;9.70;8.70;;;;;;;23.37;60.83;99789.94;345322;28;1234;-73
2022/07/24 00:05:13;;;;;;;9.40;8.48;;;;;;;23.37;61.04;99796.06;345245;28;1790;-73
2022/07/24 00:05:25;;;;;;;9.65;8.63;;;;;;;23.37;60.58;99796.06;345587;28;1889;-74
2022/07/24 00:05:37;;;;;;;10.00;8.57;;;;;;;23.37;60.71;99788.13;346252;28;1347;-73
2022/07/24 00:05:49;;;;;;;9.70;8.65;;;;;;;23.39;60.59;99794.13;345975;28;1315;-73
2022/07/24 00:06:01;;;;;;;10.05;9.02;;;;;;;23.38;60.50;99789.81;346192;28;1230;-73
2022/07/24 00:06:13;;;;;;;10.38;9.13;;;;;;;23.38;60.43;99792.47;345401;28;1843;-73
2022/07/24 00:06:25;;;;;;;10.88;9.00;;;;;;;23.38;60.46;99797.78;345319;28;1766;-74
2022/07/24 00:06:37;;;;;;;10.85;9.00;;;;;;;23.34;60.54;99791.00;345824;28;1102;-73
2022/07/24 00:06:49;;;;;;;10.45;8.98;;;;;;;23.35;60.50;99794.53;346144;28;1236;-73
2022/07/24 00:07:02;;;;;;;9.35;8.45;;;;;;;23.34;60.39;99791.00;343891;28;1883;-73
2022/07/24 00:07:14;;;;;;;9.10;8.20;;;;;;;23.31;61.42;99792.13;343434;28;1831;-73
2022/07/24 00:07:26;;;;;;;9.60;8.60;;;;;;;23.31;61.26;99785.97;344667;28;1659;-73
2022/07/24 00:07:38;;;;;;;9.98;8.98;;;;;;;23.31;61.43;99793.94;344687;28;1095;-73
2022/07/24 00:07:50;;;;;;;10.32;9.25;;;;;;;23.29;61.57;99794.06;344709;28;1055;-73
2022/07/24 00:08:02;;;;;;;10.32;9.23;;;;;;;23.31;61.57;99791.28;345997;28;1347;-73
2022/07/24 00:08:15;;;;;;;10.00;8.98;;;;;;;23.29;61.62;99788.75;345309;28;1982;-73
2022/07/24 00:08:26;;;;;;;9.32;8.43;;;;;;;23.29;61.40;99788.75;345607;28;1948;-74
2022/07/24 00:08:40;;;;;;;9.23;8.25;;;;;;;23.31;61.23;99793.94;346232;28;1794;-73
2022/07/24 00:08:53;;;;;;;10.40;8.48;;;;;;;23.31;61.19;99784.16;345865;28;1048;-73
2022/07/24 00:09:06;;;;;;;10.75;8.60;;;;;;;23.32;61.42;99785.00;346134;28;1227;-74
2022/07/24 00:09:19;;;;;;;11.32;8.95;;;;;;;23.34;61.33;99791.00;345863;28;1482;-73
2022/07/24 00:09:31;;;;;;;10.15;8.93;;;;;;;23.36;61.38;99788.25;345101;28;1361;-74
2022/07/24 00:09:43;;;;;;;9.50;8.43;;;;;;;23.37;60.96;99790.78;345205;28;1094;-73
2022/07/24 00:09:55;;;;;;;9.05;8.15;;;;;;;23.38;60.80;99792.47;345953;28;1740;-73
2022/07/24 00:10:08;;;;;;;9.15;8.27;;;;;;;23.39;60.98;99791.50;345040;28;1303;-73
2022/07/24 00:10:20;;;;;;;9.57;8.57;;;;;;;23.40;61.25;99789.66;344759;28;1050;-73
2022/07/24 00:10:33;;;;;;;9.98;8.98;;;;;;;23.38;61.54;99784.50;345431;28;1145;-73
2022/07/24 00:10:45;;;;;;;9.35;8.38;;;;;;;23.40;61.42;99787.88;346402;28;1236;-73
2022/07/24 00:10:57;;;;;;;9.20;8.20;;;;;;;23.41;61.18;99784.25;345485;28;2286;-73
2022/07/24 00:11:09;;;;;;;10.75;8.75;;;;;;;23.40;61.60;99784.38;346115;28;1759;-73
2022/07/24 00:11:21;;;;;;;10.55;9.23;;;;;;;23.39;61.49;99783.53;346060;28;1808;-73
2022/07/24 00:11:33;;;;;;;11.77;9.27;;;;;;;23.38;61.65;99789.81;345130;28;1303;-74
2022/07/24 00:11:45;;;;;;;10.95;9.15;;;;;;;23.34;62.17;99791.00;345820;28;1122;-75
2022/07/24 00:11:58;;;;;;;10.88;8.82;;;;;;;23.35;62.05;99791.88;346202;28;1360;-73
2022/07/24 00:12:10;;;;;;;9.82;8.45;;;;;;;23.35;61.87;99787.41;346185;28;1833;-73
2022/07/24 00:12:23;;;;;;;9.63;8.63;;;;;;;23.33;61.89;99792.00;346159;28;1573;-73
2022/07/24 00:12:35;;;;;;;9.73;8.73;;;;;;;23.33;62.11;99790.19;344514;28;2959;-74
2022/07/24 00:12:47;;;;;;;9.73;8.60;;;;;;;23.32;62.34;99785.00;345733;28;4861;-73
2022/07/24 00:12:59;;;;;;;10.30;8.50;;;;;;;23.34;62.11;99791.00;345843;28;1678;-73
2022/07/24 00:13:11;;;;;;;10.02;8.45;;;;;;;23.35;61.91;99789.22;344903;28;1614;-73
2022/07/24 00:13:24;;;;;;;9.40;8.40;;;;;;;23.35;62.07;99787.41;346244;28;2883;-73
2022/07/24 00:13:37;;;;;;;9.48;8.57;;;;;;;23.37;62.06;99795.25;347241;28;1233;-73
2022/07/24 00:13:49;;;;;;;9.57;8.68;;;;;;;23.38;61.73;99789.81;347694;28;1037;-73
2022/07/24 00:14:01;;;;;;;9.52;8.63;;;;;;;23.36;61.98;99789.06;346847;28;1334;-73
2022/07/24 00:14:13;;;;;;;9.50;8.60;;;;;;;23.37;62.22;99788.13;345730;28;1732;-73
2022/07/24 00:14:26;;;;;;;9.60;8.60;;;;;;;23.35;61.75;99790.06;345276;28;1575;-73
2022/07/24 00:14:38;;;;;;;9.60;8.60;;;;;;;23.35;61.98;99784.75;345934;28;5215;-73
2022/07/24 00:14:50;;;;;;;9.35;8.40;;;;;;;23.37;61.87;99781.97;345347;28;2281;-73
2022/07/24 00:15:03;;;;;;;9.70;8.32;;;;;;;23.37;61.76;99789.94;345716;28;1794;-73
2022/07/24 00:15:16;;;;;;;10.57;8.38;;;;;;;23.37;61.56;99790.78;345269;28;1692;-72
2022/07/24 00:15:28;;;;;;;11.02;8.40;;;;;;;23.38;61.50;99792.47;346209;28;1058;-73
2022/07/24 00:15:40;;;;;;;10.75;8.52;;;;;;;23.38;61.52;99792.47;347868;28;935;-72
2022/07/24 00:15:52;;;;;;;9.77;8.52;;;;;;;23.37;61.93;99780.16;346970;28;1855;-73
2022/07/24 00:16:05;;;;;;;10.80;8.63;;;;;;;23.36;61.57;99778.47;345820;28;1460;-73
2022/07/24 00:16:17;;;;;;;10.57;8.52;;;;;;;23.36;61.27;99789.06;345277;28;1035;-73
2022/07/24 00:16:29;;;;;;;9.45;8.30;;;;;;;23.35;61.25;99787.41;345098;28;1177;-73
2022/07/24 00:16:42;;;;;;;9.50;8.40;;;;;;;23.36;61.28;99783.78;345403;28;1029;-73
2022/07/24 00:16:54;;;;;;;9.45;8.40;;;;;;;23.35;61.42;99787.41;346152;28;1756;-73
2022/07/24 00:17:06;;;;;;;9.50;8.50;;;;;;;23.36;61.35;99788.25;346459;28;1317;-73
2022/07/24 00:17:18;;;;;;;10.07;8.60;;;;;;;23.35;61.49;99787.41;345594;28;2176;-73
2022/07/24 00:17:30;;;;;;;10.38;8.55;;;;;;;23.33;61.47;99789.34;346349;28;1735;-72
2022/07/24 00:17:42;;;;;;;10.75;8.75;;;;;;;23.32;61.84;99787.66;346343;28;1503;-73
2022/07/24 00:17:54;;;;;;;9.77;8.70;;;;;;;23.29;61.79;99787.94;346409;28;1097;-73
2022/07/24 00:18:06;;;;;;;10.27;8.80;;;;;;;23.27;62.43;99789.88;345016;28;1051;-73
2022/07/24 00:18:18;;;;;;;10.85;8.88;;;;;;;23.27;61.97;99785.41;345643;28;1979;-73
2022/07/24 00:18:30;;;;;;;11.07;8.73;;;;;;;23.27;62.10;99795.16;345748;28;1905;-73
2022/07/24 00:18:42;;;;;;;10.18;8.48;;;;;;;23.25;61.91;99786.50;344879;28;2763;-73
2022/07/24 00:18:54;;;;;;;9.35;8.35;;;;;;;23.26;61.93;99790.81;346163;28;1847;-73
2022/07/24 00:19:06;;;;;;;9.23;8.32;;;;;;;23.25;62.28;99783.84;346271;28;1101;-73
2022/07/24 00:19:19;;;;;;;9.15;8.25;;;;;;;23.26;62.07;99789.03;346002;28;1706;-73
2022/07/24 00:19:31;;;;;;;9.52;8.20;;;;;;;23.28;62.02;99783.56;346529;28;1746;-73
2022/07/24 00:19:43;;;;;;;10.50;8.60;;;;;;;23.30;61.93;99794.91;346481;28;1243;-73
2022/07/24 00:19:55;;;;;;;10.98;8.50;;;;;;;23.29;61.95;99787.94;346459;28;1146;-73
2022/07/24 00:20:08;;;;;;;10.98;8.32;;;;;;;23.27;62.10;99793.34;345138;28;1027;-73
2022/07/24 00:20:21;;;;;;;9.82;8.27;;;;;;;23.30;61.77;99789.59;345613;28;2380;-73
2022/07/24 00:20:33;;;;;;;9.68;8.40;;;;;;;23.31;61.86;99792.13;345299;28;1018;-73
2022/07/24 00:20:45;;;;;;;9.40;8.50;;;;;;;23.30;62.11;99784.28;344858;28;1155;-73
2022/07/24 00:21:00;;;;;;;9.30;8.38;;;;;;;23.29;62.63;99793.22;344980;28;1184;-73
2022/07/24 00:21:12;;;;;;;9.38;8.38;;;;;;;23.29;62.36;99787.94;343963;28;1675;-73
2022/07/24 00:21:25;;;;;;;9.50;8.50;;;;;;;23.28;62.95;99794.19;344734;28;1732;-73
2022/07/24 00:21:40;;;;;;;9.60;8.40;;;;;;;23.24;63.05;99793.63;344901;28;1281;-73
2022/07/24 00:21:52;;;;;;;9.73;8.52;;;;;;;23.26;62.19;99788.16;343813;28;1727;-73
2022/07/24 00:22:04;;;;;;;9.52;8.63;;;;;;;23.29;62.00;99787.94;344354;28;2041;-72
2022/07/24 00:22:18;;;;;;;9.57;8.63;;;;;;;23.28;62.22;99787.09;344546;28;1244;-73
2022/07/24 00:22:30;;;;;;;9.70;8.50;;;;;;;23.29;62.34;99785.28;345968;28;1329;-73
2022/07/24 00:22:42;;;;;;;10.65;8.38;;;;;;;23.30;61.88;99786.94;345308;28;1223;-73
2022/07/24 00:22:56;;;;;;;9.93;8.18;;;;;;;23.32;61.96;99788.50;344962;28;1039;-72
2022/07/24 00:23:08;;;;;;;9.75;8.10;;;;;;;23.34;61.66;99785.72;344889;28;1038;-73
2022/07/24 00:23:22;;;;;;;9.23;8.32;;;;;;;23.35;61.09;99782.09;344453;28;1901;-73
2022/07/24 00:23:34;;;;;;;9.23;8.23;;;;;;;23.35;61.28;99787.41;344817;28;1080;-73
2022/07/24 00:23:46;;;;;;;9.50;8.50;;;;;;;23.37;61.22;99789.94;347262;28;1273;-73
2022/07/24 00:23:58;;;;;;;13.20;8.70;;;;;;;23.38;61.19;99781.00;346987;28;1337;-73
2022/07/24 00:24:10;;;;;;;13.63;8.70;;;;;;;23.38;60.90;99779.22;345606;28;1725;-72
2022/07/24 00:24:22;;;;;;;12.68;8.40;;;;;;;23.38;60.98;99789.81;344645;28;1483;-73
2022/07/24 00:24:34;;;;;;;9.27;8.32;;;;;;;23.39;60.87;99788.00;346421;28;1042;-73
2022/07/24 00:24:48;;;;;;;9.18;8.25;;;;;;;23.38;60.91;99776.56;346415;28;1030;-73
2022/07/24 00:25:01;;;;;;;10.90;8.18;;;;;;;23.39;60.53;99778.22;345574;28;1829;-73
2022/07/24 00:25:13;;;;;;;10.57;8.43;;;;;;;23.39;60.02;99790.66;346247;28;1096;-73
2022/07/24 00:25:25;;;;;;;10.32;8.60;;;;;;;23.38;60.47;99783.66;346337;28;1269;-73
2022/07/24 00:25:38;;;;;;;9.70;8.70;;;;;;;23.38;60.78;99775.69;345849;28;1566;-73
2022/07/24 00:25:51;;;;;;;9.65;8.65;;;;;;;23.32;60.92;99787.66;346199;28;1384;-73
2022/07/24 00:26:05;;;;;;;10.35;8.70;;;;;;;23.30;61.05;99784.28;347423;28;1985;-72
2022/07/24 00:26:17;;;;;;;10.05;8.77;;;;;;;23.24;61.46;99785.66;346588;28;1581;-73
2022/07/24 00:26:29;;;;;;;9.93;8.93;;;;;;;23.20;62.28;99788.69;346538;28;1303;-73
2022/07/24 00:26:42;;;;;;;10.55;8.90;;;;;;;23.18;62.03;99785.31;346571;28;822;-72
2022/07/24 00:26:54;;;;;;;10.40;8.57;;;;;;;23.19;61.95;99781.72;346579;28;1055;-73
2022/07/24 00:27:06;;;;;;;9.90;8.40;;;;;;;23.20;61.56;99778.94;345429;28;1167;-73
2022/07/24 00:27:18;;;;;;;9.35;8.30;;;;;;;23.23;61.84;99788.44;345074;28;1324;-72
2022/07/24 00:27:30;;;;;;;9.13;8.15;;;;;;;23.22;62.15;99786.75;344973;28;1243;-73
2022/07/24 00:27:42;;;;;;;9.48;8.48;;;;;;;23.20;62.00;99784.25;345255;28;1047;-73
2022/07/24 00:27:54;;;;;;;9.52;8.52;;;;;;;23.19;61.82;99785.19;344999;28;1869;-73
2022/07/24 00:28:06;;;;;;;9.77;8.77;;;;;;;23.19;61.94;99785.19;345264;28;1192;-73
2022/07/24 00:28:20;;;;;;;9.43;8.43;;;;;;;23.20;61.43;99786.91;344832;28;1063;-73
2022/07/24 00:28:32;;;;;;;9.52;8.52;;;;;;;23.19;61.27;99787.84;345147;28;1960;-73
2022/07/24 00:28:44;;;;;;;9.50;8.50;;;;;;;23.20;61.87;99783.38;346243;28;1624;-73
2022/07/24 00:28:56;;;;;;;9.70;8.70;;;;;;;23.20;61.95;99791.34;345245;28;1406;-73
2022/07/24 00:29:08;;;;;;;9.68;8.65;;;;;;;23.24;61.79;99787.44;346469;28;1843;-73
2022/07/24 00:29:23;;;;;;;9.90;8.90;;;;;;;23.23;61.57;99783.13;345882;28;1488;-73
2022/07/24 00:29:35;;;;;;;10.23;9.20;;;;;;;23.22;61.89;99789.41;345186;28;1057;-73
2022/07/24 00:29:47;;;;;;;10.40;8.95;;;;;;;23.23;61.54;99786.63;347496;28;1003;-72
2022/07/24 00:30:00;;;;;;;10.55;8.82;;;;;;;23.25;61.71;99783.84;347015;28;1262;-73
2022/07/24 00:30:14;;;;;;;11.55;8.98;;;;;;;23.24;61.67;99787.44;345663;28;1709;-73
2022/07/24 00:30:26;;;;;;;11.90;8.88;;;;;;;23.25;61.76;99781.19;346322;28;1023;-73
2022/07/24 00:30:38;;;;;;;11.20;8.57;;;;;;;23.25;61.52;99786.50;346543;28;1125;-73
2022/07/24 00:30:50;;;;;;;9.60;8.60;;;;;;;23.27;61.76;99784.56;346213;28;4454;-72
2022/07/24 00:31:04;;;;;;;9.65;8.70;;;;;;;23.28;61.52;99786.22;347334;28;1254;-73
2022/07/24 00:31:17;;;;;;;9.68;8.63;;;;;;;23.27;61.35;99784.56;345148;28;2027;-72
2022/07/24 00:31:31;;;;;;;9.65;8.52;;;;;;;23.27;61.46;99784.56;346092;28;1555;-72
2022/07/24 00:31:44;;;;;;;9.40;8.50;;;;;;;23.25;61.38;99781.19;344587;28;1019;-73
2022/07/24 00:31:56;;;;;;;9.43;8.52;;;;;;;23.26;60.86;99789.03;344723;28;1761;-73
2022/07/24 00:32:09;;;;;;;9.20;8.30;;;;;;;23.29;60.87;99785.28;346235;28;1801;-73
2022/07/24 00:32:21;;;;;;;9.30;8.40;;;;;;;23.31;60.71;99785.97;345114;28;2115;-73
2022/07/24 00:32:33;;;;;;;9.30;8.40;;;;;;;23.31;60.75;99786.81;345193;28;1694;-73
2022/07/24 00:32:45;;;;;;;9.32;8.43;;;;;;;23.32;60.95;99787.66;345069;28;1192;-73
2022/07/24 00:32:57;;;;;;;9.23;8.32;;;;;;;23.31;61.27;99783.34;345440;28;1262;-73
2022/07/24 00:33:09;;;;;;;9.23;8.32;;;;;;;23.30;61.77;99781.63;346214;28;1059;-73
2022/07/24 00:33:21;;;;;;;9.55;8.55;;;;;;;23.30;61.86;99787.81;346067;28;1621;-73
2022/07/24 00:33:33;;;;;;;10.00;8.73;;;;;;;23.30;61.55;99777.19;345682;28;1236;-73
2022/07/24 00:33:46;;;;;;;9.95;8.70;;;;;;;23.29;61.72;99783.44;347634;28;1325;-73
2022/07/24 00:33:58;;;;;;;10.43;8.52;;;;;;;23.31;61.53;99785.97;345389;28;1509;-73
2022/07/24 00:34:10;;;;;;;10.98;8.40;;;;;;;23.31;61.48;99786.81;346290;28;1690;-73
2022/07/24 00:34:22;;;;;;;9.85;8.18;;;;;;;23.32;61.20;99785.00;346344;28;1740;-73
2022/07/24 00:34:34;;;;;;;9.52;8.38;;;;;;;23.34;61.22;99780.41;345338;28;1175;-72
2022/07/24 00:34:47;;;;;;;9.32;8.32;;;;;;;23.33;61.29;99779.56;347771;28;1259;-73
2022/07/24 00:34:59;;;;;;;9.18;8.25;;;;;;;23.32;61.19;99788.50;346478;28;1812;-73
2022/07/24 00:35:12;;;;;;;9.38;8.48;;;;;;;23.31;61.27;99780.69;344806;28;2020;-73
2022/07/24 00:35:24;;;;;;;9.35;8.45;;;;;;;23.30;61.27;99784.28;345703;28;1637;-72
2022/07/24 00:35:37;;;;;;;9.38;8.18;;;;;;;23.28;61.30;99786.22;346294;28;1066;-73
2022/07/24 00:35:49;;;;;;;10.95;8.20;;;;;;;23.29;61.34;99782.63;345748;28;1098;-73
2022/07/24 00:36:01;;;;;;;11.63;8.60;;;;;;;23.30;61.63;99784.28;347019;28;1312;-73
2022/07/24 00:36:13;;;;;;;9.55;8.45;;;;;;;23.28;61.75;99776.47;346475;28;1767;-73
2022/07/24 00:36:25;;;;;;;9.40;8.40;;;;;;;23.28;61.67;99780.94;346384;28;1813;-73
2022/07/24 00:36:37;;;;;;;9.30;8.30;;;;;;;23.26;61.87;99782.88;347254;28;1054;-73
2022/07/24 00:36:49;;;;;;;9.60;8.55;;;;;;;23.23;62.15;99785.78;347745;28;1055;-73
2022/07/24 00:37:01;;;;;;;11.27;8.60;;;;;;;23.22;62.79;99787.59;346654;28;1330;-73
2022/07/24 00:37:13;;;;;;;10.90;8.57;;;;;;;23.23;62.67;99783.13;344830;28;2037;-73
2022/07/24 00:37:27;;;;;;;10.80;8.50;;;;;;;23.21;62.37;99785.91;345411;28;1653;-73
2022/07/24 00:37:39;;;;;;;9.57;8.57;;;;;;;23.21;62.53;99779.78;346318;28;1007;-73
2022/07/24 00:37:51;;;;;;;9.82;8.82;;;;;;;23.20;62.54;99784.25;346300;28;1343;-73
2022/07/24 00:38:03;;;;;;;9.90;8.90;;;;;;;23.20;62.72;99780.72;346421;28;1555;-73
2022/07/24 00:38:15;;;;;;;9.55;8.57;;;;;;;23.21;62.53;99785.06;344941;28;2512;-73
2022/07/24 00:38:27;;;;;;;9.48;8.48;;;;;;;23.21;62.22;99787.72;346047;28;1787;-72
2022/07/24 00:38:39;;;;;;;10.70;8.80;;;;;;;23.22;62.28;99781.44;345673;28;1333;-72
2022/07/24 00:38:51;;;;;;;11.57;9.15;;;;;;;23.23;62.00;99777.84;346568;28;1101;-73
2022/07/24 00:39:04;;;;;;;11.00;9.00;;;;;;;23.24;61.75;99784.81;347474;28;1228;-73
2022/07/24 00:39:16;;;;;;;9.63;8.63;;;;;;;23.23;61.91;99780.47;345954;28;1861;-73
2022/07/24 00:39:28;;;;;;;9.68;8.70;;;;;;;23.24;61.83;99785.66;346526;28;1787;-73
2022/07/24 00:39:40;;;;;;;10.10;8.90;;;;;;;23.26;61.52;99782.88;346403;28;1177;-73
2022/07/24 00:39:53;;;;;;;9.75;8.75;;;;;;;23.25;61.50;99782.03;346045;28;2083;-73
2022/07/24 00:40:05;;;;;;;8.95;8.13;;;;;;;23.27;61.62;99784.56;346365;28;1119;-73
2022/07/24 00:40:17;;;;;;;9.13;8.30;;;;;;;23.26;61.35;99777.56;345500;28;1792;-73
2022/07/24 00:40:31;;;;;;;9.85;8.85;;;;;;;23.29;61.48;99782.63;346261;28;1791;-73
2022/07/24 00:40:43;;;;;;;10.20;9.10;;;;;;;23.27;61.68;99779.25;346450;28;1224;-73
2022/07/24 00:40:55;;;;;;;9.77;8.77;;;;;;;23.28;61.50;99783.56;345518;28;1685;-73
2022/07/24 00:41:07;;;;;;;9.70;8.70;;;;;;;23.28;61.74;99775.63;346338;28;1629;-73
2022/07/24 00:41:19;;;;;;;9.38;8.48;;;;;;;23.26;62.09;99781.06;346538;28;1285;-73
2022/07/24 00:41:31;;;;;;;9.35;8.45;;;;;;;23.28;62.10;99780.94;346507;28;1651;-73
2022/07/24 00:41:43;;;;;;;9.50;8.38;;;;;;;23.26;61.91;99778.44;347831;28;1046;-73
2022/07/24 00:41:56;;;;;;;10.00;8.52;;;;;;;23.28;61.97;99780.94;346590;28;1803;-72
2022/07/24 00:42:08;;;;;;;10.10;8.32;;;;;;;23.28;61.74;99775.63;346351;28;1497;-73
2022/07/24 00:42:20;;;;;;;9.93;8.18;;;;;;;23.28;61.61;99780.94;345550;28;1623;-73
2022/07/24 00:42:32;;;;;;;9.30;8.38;;;;;;;23.28;61.65;99775.63;346316;28;1720;-73
2022/07/24 00:42:44;;;;;;;9.55;8.63;;;;;;;23.27;61.58;99779.25;348046;28;1023;-73
2022/07/24 00:42:57;;;;;;;9.80;8.80;;;;;;;23.28;62.02;99780.94;347624;28;1389;-72
2022/07/24 00:43:09;;;;;;;9.35;8.45;;;;;;;23.26;62.06;99777.56;346517;28;1745;-73
2022/07/24 00:43:21;;;;;;;9.20;8.30;;;;;;;23.27;61.84;99779.25;345851;28;1335;-73
2022/07/24 00:43:33;;;;;;;9.82;8.45;;;;;;;23.27;62.06;99779.25;345407;28;1778;-73
2022/07/24 00:44:12;;;;;;;10.93;8.87;;;;;;;23.23;62.12;99777.84;344456;28;1827;-73
2022/07/24 00:44:24;;;;;;;10.70;9.00;;;;;;;23.26;62.05;99772.25;345187;28;1234;-73
2022/07/24 00:44:36;;;;;;;11.88;8.93;;;;;;;23.27;61.87;99780.09;346614;28;1026;-72
2022/07/24 00:44:48;;;;;;;12.20;8.73;;;;;;;23.28;61.68;99775.63;347621;28;1100;-73
2022/07/24 00:45:00;;;;;;;11.55;8.88;;;;;;;23.28;61.89;99778.28;346999;28;1312;-73
2022/07/24 00:45:13;;;;;;;9.60;8.52;;;;;;;23.27;62.19;99780.09;345346;28;1741;-73
2022/07/24 00:45:36;;;;;;;9.68;8.68;;;;;;;23.21;62.83;99777.13;346349;28;1129;-73
2022/07/24 00:45:48;;;;;;;10.40;9.30;;;;;;;23.23;62.49;99777.84;345922;28;1674;-73
2022/07/24 00:46:00;;;;;;;10.25;9.20;;;;;;;23.24;62.21;99776.84;346345;28;1264;-73
2022/07/24 00:46:12;;;;;;;10.52;9.43;;;;;;;23.22;62.44;99776.13;345641;28;1886;-73
2022/07/24 00:46:27;;;;;;;10.18;9.18;;;;;;;23.23;62.32;99778.66;345306;28;1696;-73
2022/07/24 00:46:42;;;;;;;10.35;8.57;;;;;;;23.24;62.05;99771.53;346430;28;1289;-73
2022/07/24 00:46:54;;;;;;;10.40;8.60;;;;;;;23.25;61.91;99775.91;345634;28;1858;-72
2022/07/24 00:47:06;;;;;;;10.20;8.90;;;;;;;23.26;62.12;99777.56;345899;28;1599;-73
2022/07/24 00:47:19;;;;;;;10.32;9.02;;;;;;;23.26;62.33;99774.91;346263;28;1059;-73
2022/07/24 00:47:32;;;;;;;10.20;9.07;;;;;;;23.23;61.37;99777.84;345994;28;1799;-73
2022/07/24 00:47:45;;;;;;;10.38;8.90;;;;;;;23.24;61.44;99775.06;346366;28;1145;-73
2022/07/24 00:47:57;;;;;;;10.20;8.57;;;;;;;23.24;61.16;99775.06;344517;28;1516;-73
2022/07/24 00:48:10;;;;;;;10.02;8.68;;;;;;;23.25;60.81;99773.25;345396;28;1009;-73
2022/07/24 00:48:22;;;;;;;9.88;8.88;;;;;;;23.26;60.88;99782.88;345534;28;1445;-73
2022/07/24 00:48:35;;;;;;;9.70;8.73;;;;;;;23.26;60.90;99777.56;345776;28;1195;-73
2022/07/24 00:48:48;;;;;;;9.48;8.57;;;;;;;23.26;61.29;99780.22;347336;28;1256;-72
2022/07/24 00:49:03;;;;;;;9.57;8.57;;;;;;;23.28;61.21;99780.94;346770;28;1676;-73
2022/07/24 00:49:17;;;;;;;10.38;8.77;;;;;;;23.29;61.13;99777.31;345434;28;1790;-74
2022/07/24 00:49:33;;;;;;;10.23;8.90;;;;;;;23.27;61.14;99768.66;345607;28;1361;-74
2022/07/24 00:49:45;;;;;;;10.07;8.93;;;;;;;23.25;61.76;99770.59;347768;28;1022;-74
2022/07/24 00:49:57;;;;;;;9.57;8.57;;;;;;;23.24;62.05;99774.19;345898;28;1933;-74
2022/07/24 00:50:10;;;;;;;10.20;8.80;;;;;;;23.21;62.06;99775.31;345983;28;1319;-73
2022/07/24 00:50:22;;;;;;;10.07;8.70;;;;;;;23.21;62.09;99772.66;346495;28;1022;-73
2022/07/24 00:50:34;;;;;;;9.50;8.55;;;;;;;23.22;62.48;99773.47;346475;28;1865;-73
2022/07/24 00:50:47;;;;;;;9.13;8.25;;;;;;;23.22;62.11;99779.66;346690;28;1046;-73
2022/07/24 00:50:59;;;;;;;8.88;8.05;;;;;;;23.23;61.85;99773.38;346367;28;1357;-73
2022/07/24 00:51:12;;;;;;;9.13;8.23;;;;;;;23.20;61.77;99768.34;345832;28;1688;-74
2022/07/24 00:51:24;;;;;;;9.45;8.45;;;;;;;23.19;62.06;99776.41;346379;28;1861;-73
2022/07/24 00:51:36;;;;;;;10.25;8.45;;;;;;;23.20;61.75;99772.78;346473;28;1093;-73
2022/07/24 00:51:50;;;;;;;9.82;8.40;;;;;;;23.22;61.40;99773.47;344754;28;1308;-73
2022/07/24 00:52:03;;;;;;;9.27;8.25;;;;;;;23.19;61.15;99779.06;345929;28;1327;-73
2022/07/24 00:52:15;;;;;;;9.10;8.20;;;;;;;23.18;60.86;99770.28;346199;28;1156;-73
2022/07/24 00:52:27;;;;;;;9.15;8.25;;;;;;;23.18;60.84;99774.72;346251;28;1259;-73
2022/07/24 00:52:39;;;;;;;9.27;8.30;;;;;;;23.17;61.08;99778.34;345706;28;1871;-73
2022/07/24 00:52:52;;;;;;;9.38;8.40;;;;;;;23.16;60.56;99772.22;346574;28;1041;-72
2022/07/24 00:53:04;;;;;;;9.32;8.40;;;;;;;23.15;60.81;99775.81;346410;28;1294;-73
2022/07/24 00:53:17;;;;;;;10.02;8.38;;;;;;;23.15;60.66;99774.97;345492;28;1728;-73
2022/07/24 00:53:29;;;;;;;10.18;8.30;;;;;;;23.11;60.98;99775.22;346621;28;1677;-73
2022/07/24 00:53:41;;;;;;;9.85;8.25;;;;;;;23.12;60.84;99776.09;347775;28;1163;-73
2022/07/24 00:53:53;;;;;;;9.05;8.25;;;;;;;23.11;60.77;99774.38;347652;28;1249;-74
2022/07/24 00:54:07;;;;;;;9.10;8.23;;;;;;;23.08;60.47;99775.50;347674;28;1509;-74
2022/07/24 00:54:20;;;;;;;9.55;8.60;;;;;;;23.06;60.96;99777.44;345614;28;1956;-74
2022/07/24 00:54:32;;;;;;;9.85;8.85;;;;;;;23.04;60.69;99773.19;346427;28;1849;-72
2022/07/24 00:54:45;;;;;;;9.77;8.77;;;;;;;22.98;61.32;99777.19;346440;28;1078;-72
2022/07/24 00:54:57;;;;;;;9.65;8.60;;;;;;;22.97;61.35;99782.63;346330;28;1288;-73
2022/07/24 00:55:10;;;;;;;10.20;8.70;;;;;;;22.96;61.07;99775.59;346174;28;1195;-73
2022/07/24 00:55:22;;;;;;;11.15;8.68;;;;;;;22.93;61.23;99771.41;345848;28;1535;-73
2022/07/24 00:55:34;;;;;;;11.65;8.85;;;;;;;22.92;61.46;99773.22;345105;28;1097;-72
2022/07/24 00:55:46;;;;;;;10.48;8.65;;;;;;;22.90;61.22;99771.69;347487;28;1168;-72
2022/07/24 00:55:59;;;;;;;9.63;8.68;;;;;;;22.88;61.13;99773.63;347014;28;1191;-73
2022/07/24 00:56:13;;;;;;;10.05;9.10;;;;;;;22.82;61.41;99771.44;344650;28;1705;-72
2022/07/24 00:56:25;;;;;;;10.27;9.27;;;;;;;22.78;61.55;99777.97;344614;28;1415;-73
2022/07/24 00:56:38;;;;;;;10.30;9.30;;;;;;;22.74;61.70;99772.09;344535;28;1149;-74
2022/07/24 00:56:52;;;;;;;9.93;9.02;;;;;;;22.71;61.96;99767.88;344665;28;1181;-74
2022/07/24 00:57:04;;;;;;;9.85;8.90;;;;;;;22.67;62.20;99779.69;345014;28;1613;-73
2022/07/24 00:57:17;;;;;;;10.23;9.20;;;;;;;22.61;62.28;99782.81;343143;28;1883;-73
2022/07/24 00:57:30;;;;;;;10.25;9.13;;;;;;;22.62;62.00;99779.22;344774;28;1836;-73
2022/07/24 00:57:45;;;;;;;10.43;8.68;;;;;;;22.63;61.81;99780.88;344871;28;1161;-72
2022/07/24 00:57:57;;;;;;;10.68;8.63;;;;;;;22.65;62.33;99783.44;343216;28;1121;-73
2022/07/24 00:58:09;;;;;;;9.52;8.52;;;;;;;22.63;61.94;99775.59;346076;28;1055;-73
2022/07/24 00:58:21;;;;;;;9.50;8.48;;;;;;;22.65;62.09;99778.13;344900;28;1872;-73
2022/07/24 00:58:33;;;;;;;10.02;8.60;;;;;;;22.64;62.21;99782.59;346251;28;1906;-73
2022/07/24 00:58:46;;;;;;;10.80;8.73;;;;;;;22.63;61.92;99780.88;346228;28;1117;-73
2022/07/24 00:59:00;;;;;;;10.20;8.60;;;;;;;22.62;62.01;99783.69;345416;28;1788;-73
2022/07/24 00:59:13;;;;;;;9.57;8.63;;;;;;;22.60;62.24;99781.16;345777;28;1721;-72
2022/07/24 00:59:25;;;;;;;9.52;8.57;;;;;;;22.58;62.49;99780.44;345765;28;1868;-72
2022/07/24 00:59:37;;;;;;;9.48;8.57;;;;;;;22.56;62.21;99785.03;346073;28;1532;-73
2022/07/24 00:59:49;;;;;;;9.90;8.90;;;;;;;22.53;62.45;99778.13;346088;28;1228;-73
2022/07/24 01:00:06;;;;;;;9.90;8.90;;;;;;;22.52;62.27;99779.13;345796;28;1505;-73
2022/07/24 01:00:19;;;;;;;10.45;9.10;;;;;;;22.43;62.46;99784.31;344861;28;1229;-72
2022/07/24 01:00:31;;;;;;;11.18;9.45;;;;;;;22.44;62.83;99783.34;345173;28;1714;-72